Terminal Aerodrome Forecast
Issued by NWS

Home | Current Version | Previous Version | Text Only | Print | Product List | Glossary On
Versions: 1 2 3 4 5 6 7 8 9 10 11 12 13 14 15
000
FTUS45 KGGW 300524
TAFSDY
TAF
KSDY 300524Z 3006/3106 VRB03KT P6SM SCT150
     FM301200 00000KT P6SM -SHRA OVC060
     FM301800 35007KT 5SM -SHRA BKN025
     FM310000 32009KT P6SM VCSH BKN070=

USA.gov is the U.S. government's official web portal to all federal, state and local government web resources and services.